Time;durP1;ratioP1;P1;durP2;ratioP2;P2;SDS_P1;SDS_P2;PMS_P1;PMS_P2;Temp;Humidity;BMP_temperature;BMP_pressure;BME280_temperature;BME280_humidity;BME280_pressure;Samples;Min_cycle;Max_cycle;Signal;HPM_P1;HPM_P2
2022/08/21 00:02:22;;;;;;;;;;;15.30;99.90;;;;;;5032044;28;20007;-67
2022/08/21 00:04:48;;;;;;;;;;;15.20;99.90;;;;;;5033145;28;20062;-66
2022/08/21 00:07:13;;;;;;;;;;;15.20;99.90;;;;;;5033419;28;20019;-66
2022/08/21 00:09:39;;;;;;;;;;;15.20;99.90;;;;;;5016705;28;19925;-66
2022/08/21 00:12:05;;;;;;;;;;;15.20;99.90;;;;;;5032008;28;20549;-67
2022/08/21 00:14:30;;;;;;;;;;;15.10;99.90;;;;;;5032990;28;19916;-66
2022/08/21 00:16:56;;;;;;;;;;;15.10;99.90;;;;;;5033249;28;19916;-66
2022/08/21 00:19:24;;;;;;;;;;;15.10;99.90;;;;;;5033214;28;19917;-66
2022/08/21 00:21:53;;;;;;;;;;;15.00;99.90;;;;;;5023625;28;20008;-66
2022/08/21 00:24:19;;;;;;;;;;;15.00;99.90;;;;;;5028172;28;19917;-66
2022/08/21 00:26:46;;;;;;;;;;;15.00;99.90;;;;;;5030113;28;19927;-66
2022/08/21 00:29:11;;;;;;;;;;;15.00;99.90;;;;;;5031204;28;19956;-66
2022/08/21 00:31:36;;;;;;;;;;;14.90;99.90;;;;;;5028230;28;20376;-67
2022/08/21 00:34:03;;;;;;;;;;;14.90;99.90;;;;;;5030773;28;19917;-66
2022/08/21 00:36:28;;;;;;;;;;;14.90;99.90;;;;;;5031860;28;20000;-67
2022/08/21 00:38:54;;;;;;;;;;;14.80;99.90;;;;;;5028819;28;20008;-67
2022/08/21 00:41:20;;;;;;;;;;;14.80;99.90;;;;;;5024425;28;19943;-67
2022/08/21 00:43:46;;;;;;;;;;;14.80;99.90;;;;;;5031857;28;19943;-66
2022/08/21 00:46:12;;;;;;;;;;;14.70;99.90;;;;;;5028542;28;20325;-66
2022/08/21 00:48:37;;;;;;;;;;;14.70;99.90;;;;;;5031137;28;19932;-66
2022/08/21 00:51:06;;;;;;;;;;;14.60;99.90;;;;;;5029718;28;19916;-66
2022/08/21 00:53:32;;;;;;;;;;;14.60;99.90;;;;;;5013757;28;19932;-66
2022/08/21 00:55:59;;;;;;;;;;;14.60;99.90;;;;;;5026861;28;19925;-66
2022/08/21 00:58:26;;;;;;;;;;;14.60;99.90;;;;;;5027238;28;19923;-66
2022/08/21 01:00:52;;;;;;;;;;;14.60;99.90;;;;;;5029369;28;19959;-66
2022/08/21 01:03:20;;;;;;;;;;;14.50;99.90;;;;;;5027641;28;19924;-66
2022/08/21 01:05:46;;;;;;;;;;;14.50;99.90;;;;;;5029822;28;19944;-66
2022/08/21 01:08:13;;;;;;;;;;;14.50;99.90;;;;;;5031639;28;19925;-66
2022/08/21 01:10:39;;;;;;;;;;;14.40;99.90;;;;;;5029868;28;19964;-66
2022/08/21 01:13:09;;;;;;;;;;;14.30;99.90;;;;;;5028986;28;19959;-66
2022/08/21 01:15:36;;;;;;;;;;;14.30;99.90;;;;;;5030855;28;19921;-66
2022/08/21 01:18:03;;;;;;;;;;;14.30;99.90;;;;;;5023867;28;19943;-66
2022/08/21 01:20:29;;;;;;;;;;;14.20;99.90;;;;;;5028955;28;20396;-66
2022/08/21 01:22:54;;;;;;;;;;;14.20;99.90;;;;;;5029569;28;19916;-66
2022/08/21 01:25:20;;;;;;;;;;;14.20;99.90;;;;;;5027182;28;20036;-66
2022/08/21 01:27:45;;;;;;;;;;;14.10;99.90;;;;;;5028878;28;20489;-67
2022/08/21 01:30:18;;;;;;;;;;;14.10;99.90;;;;;;5029409;28;20361;-67
2022/08/21 01:32:43;;;;;;;;;;;14.10;99.90;;;;;;5022423;28;19921;-66
2022/08/21 01:35:09;;;;;;;;;;;14.00;99.90;;;;;;5024007;28;20194;-66
2022/08/21 01:37:34;;;;;;;;;;;14.00;99.90;;;;;;5031115;28;20266;-66
2022/08/21 01:40:00;;;;;;;;;;;14.00;99.90;;;;;;5030653;28;19999;-67
2022/08/21 01:42:26;;;;;;;;;;;14.00;99.90;;;;;;5030465;28;19917;-66
2022/08/21 01:44:52;;;;;;;;;;;13.90;99.90;;;;;;5028933;28;19980;-67
2022/08/21 01:47:18;;;;;;;;;;;13.90;99.90;;;;;;5030553;28;19921;-66
2022/08/21 01:49:44;;;;;;;;;;;13.90;99.90;;;;;;5025505;28;20283;-66
2022/08/21 01:52:10;;;;;;;;;;;13.90;99.90;;;;;;5037812;28;19928;-66
2022/08/21 01:54:36;;;;;;;;;;;13.90;99.90;;;;;;5011343;28;19921;-66
2022/08/21 01:57:02;;;;;;;;;;;13.80;99.90;;;;;;5034579;28;20022;-66
2022/08/21 01:59:27;;;;;;;;;;;13.80;99.90;;;;;;5029677;28;19959;-66
2022/08/21 02:01:56;;;;;;;;;;;13.80;99.90;;;;;;5029549;28;19917;-66
2022/08/21 02:04:21;;;;;;;;;;;13.70;99.90;;;;;;5031727;28;20274;-66
2022/08/21 02:06:47;;;;;;;;;;;13.70;99.90;;;;;;5027894;28;19921;-66
2022/08/21 02:09:13;;;;;;;;;;;13.70;99.90;;;;;;5034685;28;20022;-66
2022/08/21 02:11:40;;;;;;;;;;;13.70;99.90;;;;;;5034807;28;19917;-66
2022/08/21 02:14:09;;;;;;;;;;;13.60;99.90;;;;;;5034709;28;19947;-66
2022/08/21 02:16:34;;;;;;;;;;;13.60;99.90;;;;;;5033354;28;20008;-66
2022/08/21 02:19:00;;;;;;;;;;;13.60;99.90;;;;;;5034621;28;19996;-66
2022/08/21 02:21:26;;;;;;;;;;;13.60;99.90;;;;;;5034682;28;19917;-66
2022/08/21 02:23:51;;;;;;;;;;;13.60;99.90;;;;;;5030132;28;19924;-66
2022/08/21 02:26:17;;;;;;;;;;;13.60;99.90;;;;;;5033742;28;20378;-66
2022/08/21 02:28:43;;;;;;;;;;;13.50;99.90;;;;;;5014465;28;19962;-66
2022/08/21 02:31:08;;;;;;;;;;;13.50;99.90;;;;;;5031482;28;20440;-66
2022/08/21 02:33:34;;;;;;;;;;;13.50;99.90;;;;;;5032178;28;19917;-66
2022/08/21 02:35:59;;;;;;;;;;;13.50;99.90;;;;;;5048967;28;19925;-67
2022/08/21 02:38:26;;;;;;;;;;;13.40;99.90;;;;;;5028570;28;23859;-66
2022/08/21 02:40:53;;;;;;;;;;;13.40;99.90;;;;;;5030975;28;19925;-66
2022/08/21 02:43:19;;;;;;;;;;;13.40;99.90;;;;;;5027459;28;20011;-66
2022/08/21 02:45:45;;;;;;;;;;;13.40;99.90;;;;;;5032406;28;19936;-66
2022/08/21 02:48:12;;;;;;;;;;;13.30;99.90;;;;;;5034393;28;20310;-66
2022/08/21 02:50:39;;;;;;;;;;;13.30;99.90;;;;;;5034172;28;19916;-66
2022/08/21 02:53:06;;;;;;;;;;;13.30;99.90;;;;;;5033938;28;19917;-66
2022/08/21 02:55:32;;;;;;;;;;;13.30;99.90;;;;;;5030700;28;19920;-66
2022/08/21 02:57:58;;;;;;;;;;;13.30;99.90;;;;;;5034000;28;19963;-66
2022/08/21 03:00:25;;;;;;;;;;;13.30;99.90;;;;;;5025995;28;19921;-66
2022/08/21 03:02:51;;;;;;;;;;;13.30;99.90;;;;;;5032548;28;19960;-66
2022/08/21 03:05:16;;;;;;;;;;;13.30;99.90;;;;;;5033940;28;19952;-66
2022/08/21 03:07:42;;;;;;;;;;;13.30;99.90;;;;;;5033539;28;19967;-66
2022/08/21 03:10:08;;;;;;;;;;;13.30;99.90;;;;;;5033985;28;19917;-66
2022/08/21 03:12:35;;;;;;;;;;;13.20;99.90;;;;;;5031960;28;19928;-66
2022/08/21 03:15:01;;;;;;;;;;;13.20;99.90;;;;;;5028231;28;20470;-65
2022/08/21 03:17:27;;;;;;;;;;;13.20;99.90;;;;;;5031388;28;19921;-66
2022/08/21 03:19:52;;;;;;;;;;;13.20;99.90;;;;;;5030049;28;19921;-66
2022/08/21 03:22:18;;;;;;;;;;;13.20;99.90;;;;;;5033172;28;20127;-66
2022/08/21 03:24:45;;;;;;;;;;;13.10;99.90;;;;;;5033272;28;19917;-66
2022/08/21 03:27:12;;;;;;;;;;;13.10;99.90;;;;;;5031055;28;20673;-66
2022/08/21 03:29:38;;;;;;;;;;;13.10;99.90;;;;;;5031298;28;20444;-66
2022/08/21 03:32:03;;;;;;;;;;;13.10;99.90;;;;;;5028645;28;19925;-66
2022/08/21 03:34:29;;;;;;;;;;;13.10;99.90;;;;;;5030860;28;19929;-66
2022/08/21 03:36:54;;;;;;;;;;;13.10;99.90;;;;;;5031518;28;19921;-66
2022/08/21 03:39:20;;;;;;;;;;;13.10;99.90;;;;;;5030786;28;19921;-66
2022/08/21 03:41:47;;;;;;;;;;;13.10;99.90;;;;;;5033399;28;19917;-66
2022/08/21 03:44:12;;;;;;;;;;;13.10;99.90;;;;;;5032131;28;20426;-66
2022/08/21 03:46:39;;;;;;;;;;;13.10;99.90;;;;;;5026616;28;19921;-66
2022/08/21 03:49:05;;;;;;;;;;;13.10;99.90;;;;;;5032520;28;19924;-66
2022/08/21 03:51:33;;;;;;;;;;;13.10;99.90;;;;;;5031986;28;20281;-66
2022/08/21 03:53:58;;;;;;;;;;;13.10;99.90;;;;;;5031959;28;19917;-67
2022/08/21 03:56:24;;;;;;;;;;;13.00;99.90;;;;;;5032977;28;19999;-66
2022/08/21 03:58:49;;;;;;;;;;;13.00;99.90;;;;;;5031307;28;19932;-67
2022/08/21 04:01:15;;;;;;;;;;;13.00;99.90;;;;;;5032794;28;19925;-66
2022/08/21 04:03:40;;;;;;;;;;;13.00;99.90;;;;;;5025387;28;19917;-66
2022/08/21 04:06:07;;;;;;;;;;;13.00;99.90;;;;;;5033378;28;19921;-66
2022/08/21 04:08:32;;;;;;;;;;;13.00;99.90;;;;;;5031969;28;19921;-66
2022/08/21 04:10:58;;;;;;;;;;;13.00;99.90;;;;;;5032244;28;19928;-66
2022/08/21 04:13:24;;;;;;;;;;;13.00;99.90;;;;;;5031913;28;20367;-66
2022/08/21 04:15:50;;;;;;;;;;;13.00;99.90;;;;;;5033144;28;19921;-66
2022/08/21 04:18:16;;;;;;;;;;;13.00;99.90;;;;;;5032539;28;19917;-67
2022/08/21 04:20:42;;;;;;;;;;;12.90;99.90;;;;;;5019882;28;19918;-66
2022/08/21 04:23:08;;;;;;;;;;;12.90;99.90;;;;;;5027914;28;19917;-66
2022/08/21 04:25:33;;;;;;;;;;;12.90;99.90;;;;;;5032139;28;20007;-65
2022/08/21 04:27:59;;;;;;;;;;;12.90;99.90;;;;;;5031357;28;20272;-66
2022/08/21 04:30:25;;;;;;;;;;;12.90;99.90;;;;;;5030370;28;20393;-66
2022/08/21 04:32:51;;;;;;;;;;;12.90;99.90;;;;;;5031367;28;19921;-66
2022/08/21 04:35:19;;;;;;;;;;;12.90;99.90;;;;;;5031772;28;19916;-66
2022/08/21 04:37:45;;;;;;;;;;;12.90;99.90;;;;;;5019336;28;19925;-66
2022/08/21 04:40:11;;;;;;;;;;;12.90;99.90;;;;;;5019910;28;19923;-66
2022/08/21 04:42:45;;;;;;;;;;;13.00;99.90;;;;;;5029493;28;19924;-66
2022/08/21 04:45:21;;;;;;;;;;;13.00;99.90;;;;;;5029676;28;19924;-66
2022/08/21 04:47:54;;;;;;;;;;;13.00;99.90;;;;;;5029450;28;19921;-66
2022/08/21 04:50:21;;;;;;;;;;;13.00;99.90;;;;;;5026597;28;19927;-66
2022/08/21 04:52:47;;;;;;;;;;;13.00;99.90;;;;;;5030403;28;20012;-67
2022/08/21 04:55:13;;;;;;;;;;;13.10;99.90;;;;;;5024993;28;20036;-66
2022/08/21 04:57:39;;;;;;;;;;;13.10;99.90;;;;;;5032338;28;19921;-66
2022/08/21 05:00:05;;;;;;;;;;;13.20;99.90;;;;;;5030611;28;19920;-66
2022/08/21 05:02:32;;;;;;;;;;;13.20;99.90;;;;;;5025084;28;19971;-65
2022/08/21 05:04:59;;;;;;;;;;;13.20;99.90;;;;;;5031179;28;19917;-66
2022/08/21 05:07:26;;;;;;;;;;;13.30;99.90;;;;;;5029577;28;19925;-67
2022/08/21 05:09:51;;;;;;;;;;;13.30;99.90;;;;;;5031877;28;19917;-66
2022/08/21 05:12:17;;;;;;;;;;;13.30;99.90;;;;;;5029991;28;19917;-66
2022/08/21 05:14:43;;;;;;;;;;;13.40;99.90;;;;;;5030242;28;19917;-66
2022/08/21 05:17:09;;;;;;;;;;;13.40;99.90;;;;;;5026141;28;19984;-66
2022/08/21 05:19:34;;;;;;;;;;;13.50;99.90;;;;;;5029252;28;20044;-66
2022/08/21 05:22:00;;;;;;;;;;;13.50;99.90;;;;;;5024128;28;20276;-66
2022/08/21 05:24:26;;;;;;;;;;;13.60;99.90;;;;;;5021004;28;20378;-66
2022/08/21 05:26:52;;;;;;;;;;;13.70;99.90;;;;;;5014801;28;19917;-66
2022/08/21 05:29:18;;;;;;;;;;;13.80;99.90;;;;;;5032014;28;19932;-66
2022/08/21 05:31:44;;;;;;;;;;;13.80;99.90;;;;;;5031946;28;19921;-66
2022/08/21 05:34:10;;;;;;;;;;;13.90;99.90;;;;;;5030855;28;19970;-66
2022/08/21 05:36:36;;;;;;;;;;;14.00;99.90;;;;;;5027832;28;20436;-66
2022/08/21 05:39:02;;;;;;;;;;;14.00;99.90;;;;;;5025056;28;19932;-66
2022/08/21 05:41:27;;;;;;;;;;;14.10;99.90;;;;;;5029546;28;19921;-66
2022/08/21 05:43:53;;;;;;;;;;;14.20;99.90;;;;;;5028370;28;19962;-65
2022/08/21 05:46:18;;;;;;;;;;;14.30;99.90;;;;;;5029556;28;19924;-66
2022/08/21 05:48:44;;;;;;;;;;;14.50;99.90;;;;;;5004948;28;19925;-66
2022/08/21 05:51:10;;;;;;;;;;;;;;;;;;5027437;28;20447;-64
2022/08/21 05:53:36;;;;;;;;;;;17.10;99.90;;;;;;5031875;22;19925;-70
2022/08/21 05:56:03;;;;;;;;;;;19.30;99.90;;;;;;5034721;28;19921;-70
2022/08/21 05:58:29;;;;;;;;;;;19.60;99.90;;;;;;5018266;28;19922;-68
2022/08/21 06:00:55;;;;;;;;;;;20.80;99.90;;;;;;5030005;28;19917;-68
2022/08/21 06:03:22;;;;;;;;;;;21.80;99.90;;;;;;5038068;28;19943;-68
2022/08/21 06:05:48;;;;;;;;;;;22.60;99.90;;;;;;5020062;28;20370;-68
2022/08/21 06:08:14;;;;;;;;;;;23.40;99.70;;;;;;5033729;28;19982;-68
2022/08/21 06:10:40;;;;;;;;;;;23.90;99.40;;;;;;5036118;28;19921;-69
2022/08/21 06:13:05;;;;;;;;;;;24.60;96.10;;;;;;5027787;28;20369;-69
2022/08/21 06:15:30;;;;;;;;;;;25.20;94.70;;;;;;5023160;28;19957;-69
2022/08/21 06:17:56;;;;;;;;;;;25.60;93.10;;;;;;5030498;28;19924;-69
2022/08/21 06:20:22;;;;;;;;;;;26.00;92.90;;;;;;5004086;28;19971;-68
2022/08/21 06:22:47;;;;;;;;;;;26.70;92.40;;;;;;5023780;28;19917;-68
2022/08/21 06:25:13;;;;;;;;;;;27.30;92.80;;;;;;5014121;28;20032;-69
2022/08/21 06:27:38;;;;;;;;;;;27.50;92.70;;;;;;5021548;28;20255;-69
2022/08/21 06:30:05;;;;;;;;;;;27.60;91.80;;;;;;5013337;28;19979;-70
2022/08/21 06:32:31;;;;;;;;;;;27.60;88.80;;;;;;5027188;28;19928;-69
2022/08/21 06:34:56;;;;;;;;;;;27.80;87.80;;;;;;5024256;28;19917;-69
2022/08/21 06:37:22;;;;;;;;;;;27.90;90.10;;;;;;5028466;28;19975;-69
2022/08/21 06:39:48;;;;;;;;;;;28.20;86.70;;;;;;5017951;28;19925;-68
2022/08/21 06:42:16;;;;;;;;;;;28.20;84.60;;;;;;5017096;28;19921;-69
2022/08/21 06:44:42;;;;;;;;;;;28.40;87.50;;;;;;5013833;28;19924;-69
2022/08/21 06:47:08;;;;;;;;;;;28.80;84.50;;;;;;5003910;28;19917;-69
2022/08/21 06:49:34;;;;;;;;;;;28.70;84.10;;;;;;5014486;28;20446;-68
2022/08/21 06:51:59;;;;;;;;;;;29.10;84.90;;;;;;5024478;28;19925;-69
2022/08/21 06:54:25;;;;;;;;;;;29.40;82.70;;;;;;5022050;28;20268;-69
2022/08/21 06:56:50;;;;;;;;;;;29.30;81.90;;;;;;5019256;28;20346;-69
2022/08/21 06:59:16;;;;;;;;;;;29.20;85.10;;;;;;5019592;28;20015;-69
2022/08/21 07:01:41;;;;;;;;;;;29.50;82.40;;;;;;5025537;28;20474;-69
2022/08/21 07:04:07;;;;;;;;;;;29.70;83.10;;;;;;5017681;28;19921;-69
2022/08/21 07:06:33;;;;;;;;;;;29.90;82.10;;;;;;5029075;28;19917;-70
2022/08/21 07:08:58;;;;;;;;;;;30.00;82.10;;;;;;5022805;28;19932;-70
2022/08/21 07:11:24;;;;;;;;;;;30.20;81.50;;;;;;5023074;28;19924;-69
2022/08/21 07:13:52;;;;;;;;;;;30.30;77.40;;;;;;5018153;28;19944;-69
2022/08/21 07:16:17;;;;;;;;;;;30.60;78.00;;;;;;5022388;28;19924;-69
2022/08/21 07:18:43;;;;;;;;;;;31.10;77.50;;;;;;5022540;28;19925;-69
2022/08/21 07:21:08;;;;;;;;;;;31.10;78.40;;;;;;5009179;28;20417;-69
2022/08/21 07:23:34;;;;;;;;;;;;;;;;;;5026148;28;19940;-70
2022/08/21 07:26:00;;;;;;;;;;;31.00;75.70;;;;;;5012419;28;20271;-70
2022/08/21 07:28:26;;;;;;;;;;;31.40;73.90;;;;;;5024131;28;20282;-69
2022/08/21 07:30:53;;;;;;;;;;;31.00;75.00;;;;;;5016338;28;20391;-70
2022/08/21 07:33:18;;;;;;;;;;;31.10;73.30;;;;;;5013741;28;20403;-69
2022/08/21 07:35:44;;;;;;;;;;;30.80;74.50;;;;;;5009036;28;19963;-70
2022/08/21 07:38:09;;;;;;;;;;;30.40;74.10;;;;;;5018236;28;19996;-70
2022/08/21 07:40:35;;;;;;;;;;;30.70;73.70;;;;;;5024793;28;19939;-70
2022/08/21 07:43:00;;;;;;;;;;;30.90;73.10;;;;;;5020793;28;19931;-70
2022/08/21 07:45:26;;;;;;;;;;;30.90;72.90;;;;;;5040530;28;19983;-69
2022/08/21 07:47:52;;;;;;;;;;;30.80;74.60;;;;;;5012410;28;19924;-70
2022/08/21 07:50:18;;;;;;;;;;;30.80;72.60;;;;;;5024575;28;19921;-69
2022/08/21 07:52:44;;;;;;;;;;;30.80;72.30;;;;;;5031547;28;19931;-69
2022/08/21 07:55:11;;;;;;;;;;;30.10;71.70;;;;;;5008794;28;19924;-69
2022/08/21 07:57:37;;;;;;;;;;;28.80;74.10;;;;;;5019118;28;19923;-69
2022/08/21 08:00:07;;;;;;;;;;;27.60;75.80;;;;;;5019151;28;19917;-69
2022/08/21 08:02:33;;;;;;;;;;;26.80;77.10;;;;;;5018051;28;20339;-69
2022/08/21 08:05:03;;;;;;;;;;;25.80;79.70;;;;;;5025318;28;19928;-69
2022/08/21 08:07:29;;;;;;;;;;;25.30;80.80;;;;;;5005867;28;19917;-69
2022/08/21 08:09:54;;;;;;;;;;;24.70;82.30;;;;;;5021602;28;19921;-69
2022/08/21 08:12:20;;;;;;;;;;;24.40;83.20;;;;;;5026067;28;19916;-69
2022/08/21 08:14:46;;;;;;;;;;;24.00;84.60;;;;;;5017975;28;20593;-68
2022/08/21 08:17:13;;;;;;;;;;;23.80;86.00;;;;;;5023628;28;19931;-69
2022/08/21 08:19:38;;;;;;;;;;;23.60;86.80;;;;;;5016083;28;19917;-69
2022/08/21 08:22:12;;;;;;;;;;;23.50;86.80;;;;;;5020402;28;19929;-68
2022/08/21 08:24:38;;;;;;;;;;;23.50;86.60;;;;;;5017559;28;20004;-69
2022/08/21 08:27:04;;;;;;;;;;;23.40;88.30;;;;;;5029263;28;20434;-68
2022/08/21 08:29:30;;;;;;;;;;;23.20;88.60;;;;;;5021583;28;19918;-69
2022/08/21 08:31:57;;;;;;;;;;;23.10;89.30;;;;;;4999263;28;19928;-69
2022/08/21 08:34:23;;;;;;;;;;;23.10;90.40;;;;;;4999550;28;19967;-69
2022/08/21 08:36:48;;;;;;;;;;;23.00;90.00;;;;;;5011329;28;19921;-69
2022/08/21 08:39:14;;;;;;;;;;;23.10;89.60;;;;;;5021301;28;19924;-69
2022/08/21 08:41:40;;;;;;;;;;;23.00;89.50;;;;;;5031282;28;20062;-69
2022/08/21 08:44:07;;;;;;;;;;;22.90;89.40;;;;;;5023718;28;19921;-69
2022/08/21 08:46:38;;;;;;;;;;;22.90;89.30;;;;;;5030652;28;20302;-69
2022/08/21 08:49:14;;;;;;;;;;;22.90;89.50;;;;;;5031025;28;19999;-70
2022/08/21 08:52:06;;;;;;;;;;;22.90;90.00;;;;;;5018167;28;19947;-69
2022/08/21 08:54:34;;;;;;;;;;;23.00;90.00;;;;;;4998306;28;20278;-69
2022/08/21 08:57:01;;;;;;;;;;;22.90;90.20;;;;;;5020454;28;20008;-69
2022/08/21 08:59:31;;;;;;;;;;;23.00;90.40;;;;;;5022891;28;19917;-69
2022/08/21 09:01:57;;;;;;;;;;;23.10;90.40;;;;;;5021176;28;19920;-69
2022/08/21 09:04:24;;;;;;;;;;;23.10;90.40;;;;;;5018355;28;19994;-68
2022/08/21 09:07:10;;;;;;;;;;;23.20;90.10;;;;;;5016670;28;20363;-70
2022/08/21 09:09:46;;;;;;;;;;;23.40;89.70;;;;;;5014891;28;19968;-70
2022/08/21 09:12:16;;;;;;;;;;;23.30;90.10;;;;;;5018833;28;20367;-70
2022/08/21 09:14:48;;;;;;;;;;;23.40;89.30;;;;;;5011966;28;19920;-70
2022/08/21 09:17:42;;;;;;;;;;;23.50;89.30;;;;;;5016270;28;19921;-69
2022/08/21 09:20:17;;;;;;;;;;;23.40;89.20;;;;;;5001418;28;19944;-69
2022/08/21 09:22:53;;;;;;;;;;;23.50;89.70;;;;;;5025419;28;19920;-69
2022/08/21 09:25:23;;;;;;;;;;;23.50;89.20;;;;;;5000953;28;20355;-69
2022/08/21 09:27:50;;;;;;;;;;;23.60;89.20;;;;;;5018047;28;19981;-69
2022/08/21 09:30:16;;;;;;;;;;;23.60;90.10;;;;;;5001804;28;20405;-69
2022/08/21 09:32:41;;;;;;;;;;;23.70;90.20;;;;;;5027086;28;20004;-70
2022/08/21 09:35:07;;;;;;;;;;;23.80;89.20;;;;;;5000004;28;20614;-71
2022/08/21 09:37:45;;;;;;;;;;;23.80;89.10;;;;;;5022781;28;20413;-71
2022/08/21 09:40:26;;;;;;;;;;;23.90;89.00;;;;;;5018336;28;20448;-71
2022/08/21 09:42:59;;;;;;;;;;;23.90;89.00;;;;;;5011037;28;19921;-71
2022/08/21 09:45:25;;;;;;;;;;;24.00;89.20;;;;;;5019556;28;19971;-71
2022/08/21 09:47:50;;;;;;;;;;;24.00;89.30;;;;;;5013452;28;20297;-70
2022/08/21 09:50:17;;;;;;;;;;;24.10;89.20;;;;;;5020358;28;20322;-70
2022/08/21 09:52:54;;;;;;;;;;;24.10;89.00;;;;;;5022451;28;19917;-71
2022/08/21 09:58:11;;;;;;;;;;;24.30;89.00;;;;;;5020210;28;19928;-72
2022/08/21 10:00:37;;;;;;;;;;;24.30;89.10;;;;;;5023873;28;19922;-70
2022/08/21 10:03:11;;;;;;;;;;;24.40;88.30;;;;;;5019207;28;19924;-70
2022/08/21 10:05:37;;;;;;;;;;;24.20;89.60;;;;;;5028424;28;19970;-70
2022/08/21 10:08:04;;;;;;;;;;;24.20;90.10;;;;;;5026435;28;20400;-71
2022/08/21 10:10:30;;;;;;;;;;;24.20;90.40;;;;;;5026058;28;19929;-71
2022/08/21 10:13:14;;;;;;;;;;;24.30;89.70;;;;;;4997211;28;19924;-69
2022/08/21 10:15:53;;;;;;;;;;;24.40;89.30;;;;;;5022736;28;19967;-70
2022/08/21 10:18:18;;;;;;;;;;;24.40;89.30;;;;;;5023446;28;20418;-70
2022/08/21 10:20:45;;;;;;;;;;;24.60;89.50;;;;;;5021452;28;19917;-70
2022/08/21 10:23:20;;;;;;;;;;;24.50;89.10;;;;;;5020502;28;19925;-70
2022/08/21 10:25:56;;;;;;;;;;;24.50;89.80;;;;;;5029659;28;19948;-70
2022/08/21 10:28:22;;;;;;;;;;;24.40;90.00;;;;;;5023586;28;19917;-70
2022/08/21 10:31:10;;;;;;;;;;;24.60;90.00;;;;;;5023821;28;20341;-70
2022/08/21 10:33:51;;;;;;;;;;;24.80;89.90;;;;;;5020717;28;19921;-70
2022/08/21 10:36:20;;;;;;;;;;;24.90;89.70;;;;;;5024898;28;20566;-69
2022/08/21 10:38:45;;;;;;;;;;;25.10;89.10;;;;;;5024149;28;20378;-71
2022/08/21 10:41:11;;;;;;;;;;;25.30;90.50;;;;;;5010187;28;20019;-70
2022/08/21 10:43:36;;;;;;;;;;;25.50;88.10;;;;;;5009053;28;20008;-70
2022/08/21 10:46:02;;;;;;;;;;;25.50;87.60;;;;;;5019754;28;19917;-70
2022/08/21 10:48:31;;;;;;;;;;;25.60;86.80;;;;;;5027036;28;20011;-71
2022/08/21 10:51:14;;;;;;;;;;;25.70;85.90;;;;;;5014394;28;19970;-70
2022/08/21 10:53:45;;;;;;;;;;;25.80;86.00;;;;;;5012516;28;19925;-70
2022/08/21 10:56:13;;;;;;;;;;;25.90;86.70;;;;;;5019590;28;19921;-70
2022/08/21 10:58:57;;;;;;;;;;;26.00;86.70;;;;;;5032016;28;19932;-70
2022/08/21 11:01:38;;;;;;;;;;;26.10;85.30;;;;;;5029997;28;19960;-70
2022/08/21 11:04:09;;;;;;;;;;;25.90;86.20;;;;;;4998864;28;20415;-70
2022/08/21 11:06:36;;;;;;;;;;;25.70;87.00;;;;;;5024140;28;19944;-69
2022/08/21 11:09:23;;;;;;;;;;;25.70;86.70;;;;;;5022110;28;19960;-70
2022/08/21 11:11:54;;;;;;;;;;;25.70;86.90;;;;;;5017088;28;19921;-70
2022/08/21 11:14:20;;;;;;;;;;;25.90;85.80;;;;;;5003063;28;19917;-70
2022/08/21 11:16:48;;;;;;;;;;;25.80;85.90;;;;;;5025918;28;20376;-70
2022/08/21 11:19:32;;;;;;;;;;;25.90;86.20;;;;;;5021655;28;20000;-70
2022/08/21 11:22:02;;;;;;;;;;;25.90;86.80;;;;;;5031945;28;19924;-70
2022/08/21 11:24:31;;;;;;;;;;;25.90;84.30;;;;;;5017261;28;19933;-70
2022/08/21 11:26:56;;;;;;;;;;;25.70;85.60;;;;;;5029504;28;19921;-70
2022/08/21 11:29:25;;;;;;;;;;;26.10;85.00;;;;;;5019271;28;19917;-70
2022/08/21 11:31:50;;;;;;;;;;;26.30;84.30;;;;;;5028787;28;19924;-70
2022/08/21 11:34:19;;;;;;;;;;;26.40;83.20;;;;;;5022554;28;19921;-70
2022/08/21 11:36:51;;;;;;;;;;;26.20;82.00;;;;;;5019800;28;20417;-70
2022/08/21 11:39:39;;;;;;;;;;;26.20;83.80;;;;;;5010696;28;19931;-70
2022/08/21 11:42:15;;;;;;;;;;;26.10;84.40;;;;;;5015528;28;19925;-69
2022/08/21 11:44:48;;;;;;;;;;;26.00;84.50;;;;;;4996128;28;19927;-70
2022/08/21 11:47:16;;;;;;;;;;;25.80;85.10;;;;;;5019365;28;20019;-70
2022/08/21 11:49:54;;;;;;;;;;;25.70;84.60;;;;;;5010007;28;19971;-70
2022/08/21 11:52:29;;;;;;;;;;;25.60;86.20;;;;;;5019699;28;19963;-70
2022/08/21 11:54:57;;;;;;;;;;;25.40;85.70;;;;;;5017412;28;19968;-70
2022/08/21 11:57:38;;;;;;;;;;;25.40;85.90;;;;;;5014958;28;19922;-70
2022/08/21 12:00:13;;;;;;;;;;;25.40;87.50;;;;;;5017016;28;19917;-70
2022/08/21 12:02:42;;;;;;;;;;;25.30;86.10;;;;;;5030981;28;19917;-70
2022/08/21 12:05:10;;;;;;;;;;;25.30;87.30;;;;;;5019197;28;20413;-70
2022/08/21 12:07:40;;;;;;;;;;;25.30;86.80;;;;;;5021908;28;20019;-70
2022/08/21 12:10:08;;;;;;;;;;;25.20;86.00;;;;;;5032351;28;19921;-70
2022/08/21 12:12:35;;;;;;;;;;;25.30;87.80;;;;;;5048963;28;19916;-70
2022/08/21 12:15:12;;;;;;;;;;;25.20;88.30;;;;;;5042836;28;19969;-70
2022/08/21 12:17:38;;;;;;;;;;;25.20;87.10;;;;;;5025623;28;19917;-70
2022/08/21 12:20:16;;;;;;;;;;;25.20;88.30;;;;;;5013901;28;19921;-70
2022/08/21 12:22:49;;;;;;;;;;;25.20;88.60;;;;;;5025819;28;19974;-70
2022/08/21 12:25:16;;;;;;;;;;;25.20;87.80;;;;;;5048629;28;20389;-72
2022/08/21 12:27:47;;;;;;;;;;;25.10;88.00;;;;;;5039734;28;19916;-72
2022/08/21 12:30:25;;;;;;;;;;;25.20;87.70;;;;;;5032409;28;19925;-71
2022/08/21 12:32:56;;;;;;;;;;;25.20;87.90;;;;;;5014187;28;20011;-71
2022/08/21 12:35:24;;;;;;;;;;;25.20;85.90;;;;;;5038842;28;20478;-71
2022/08/21 12:37:56;;;;;;;;;;;25.10;86.70;;;;;;5038260;28;19940;-71
2022/08/21 12:40:24;;;;;;;;;;;25.10;88.10;;;;;;5037699;28;19925;-71
2022/08/21 12:42:52;;;;;;;;;;;25.10;88.10;;;;;;5040233;28;20545;-71
2022/08/21 12:45:39;;;;;;;;;;;25.20;88.90;;;;;;5034751;28;20391;-70
2022/08/21 12:48:29;;;;;;;;;;;25.20;88.60;;;;;;5012087;28;20304;-70
2022/08/21 12:51:05;;;;;;;;;;;25.20;88.40;;;;;;5031580;28;19925;-70
2022/08/21 12:53:33;;;;;;;;;;;25.20;88.50;;;;;;5024944;28;19916;-70
2022/08/21 12:56:03;;;;;;;;;;;25.20;87.90;;;;;;5027047;28;19921;-70
2022/08/21 12:58:29;;;;;;;;;;;25.20;88.20;;;;;;5028368;28;19928;-70
2022/08/21 13:01:02;;;;;;;;;;;25.10;88.70;;;;;;5016927;28;19918;-71
2022/08/21 13:03:28;;;;;;;;;;;25.00;88.90;;;;;;5032797;28;19924;-71
2022/08/21 13:05:54;;;;;;;;;;;25.00;88.70;;;;;;5016667;28;19917;-71
2022/08/21 13:08:20;;;;;;;;;;;24.90;88.50;;;;;;5047826;28;19917;-70
2022/08/21 13:10:47;;;;;;;;;;;24.70;88.30;;;;;;5036840;28;19971;-70
2022/08/21 13:13:23;;;;;;;;;;;24.80;89.40;;;;;;5027824;28;19955;-70
2022/08/21 13:15:48;;;;;;;;;;;24.70;89.50;;;;;;5040726;28;19921;-70
2022/08/21 13:18:21;;;;;;;;;;;24.70;90.10;;;;;;5044266;28;20012;-70
2022/08/21 13:20:47;;;;;;;;;;;24.60;89.10;;;;;;5028791;28;20362;-69
2022/08/21 13:23:29;;;;;;;;;;;24.40;89.80;;;;;;5015045;28;19932;-70
2022/08/21 13:25:55;;;;;;;;;;;24.40;89.70;;;;;;5018166;28;19917;-70
2022/08/21 13:28:20;;;;;;;;;;;24.20;90.30;;;;;;5015577;28;19922;-70
2022/08/21 13:30:48;;;;;;;;;;;24.20;90.50;;;;;;5021995;28;19929;-70
2022/08/21 13:33:15;;;;;;;;;;;24.20;90.60;;;;;;5024861;28;19917;-70
2022/08/21 13:35:51;;;;;;;;;;;24.30;90.80;;;;;;5020571;28;20372;-70
2022/08/21 13:38:20;;;;;;;;;;;24.30;90.50;;;;;;4997624;28;19922;-70
2022/08/21 13:40:50;;;;;;;;;;;24.10;90.00;;;;;;5012297;28;19928;-70
2022/08/21 13:43:18;;;;;;;;;;;24.00;90.20;;;;;;5019665;28;19921;-70
2022/08/21 13:45:46;;;;;;;;;;;23.80;90.50;;;;;;5017033;28;20000;-70
2022/08/21 13:48:12;;;;;;;;;;;23.90;90.50;;;;;;5018432;28;20450;-70
2022/08/21 13:50:38;;;;;;;;;;;24.00;88.70;;;;;;5007440;28;19964;-70
2022/08/21 13:53:05;;;;;;;;;;;24.10;90.40;;;;;;5003556;28;19917;-70
2022/08/21 13:55:39;;;;;;;;;;;24.00;89.60;;;;;;5016993;28;20015;-70
2022/08/21 13:58:05;;;;;;;;;;;24.20;90.50;;;;;;5017328;28;20013;-70
2022/08/21 14:00:34;;;;;;;;;;;24.40;90.30;;;;;;5021539;28;20434;-70
2022/08/21 14:03:07;;;;;;;;;;;24.40;88.90;;;;;;5020995;28;19917;-70
2022/08/21 14:05:35;;;;;;;;;;;24.70;89.50;;;;;;5023171;28;19921;-69
2022/08/21 14:08:06;;;;;;;;;;;24.80;86.60;;;;;;5025450;28;19917;-69
2022/08/21 14:10:34;;;;;;;;;;;24.90;87.20;;;;;;5028319;28;19968;-70
2022/08/21 14:13:05;;;;;;;;;;;25.10;84.70;;;;;;5027220;28;20372;-70
2022/08/21 14:15:32;;;;;;;;;;;25.10;84.40;;;;;;5033156;28;20386;-69
2022/08/21 14:18:09;;;;;;;;;;;25.40;86.40;;;;;;5013171;28;20314;-69
2022/08/21 14:20:35;;;;;;;;;;;24.90;84.40;;;;;;5014245;28;19952;-70
2022/08/21 14:23:01;;;;;;;;;;;25.30;83.40;;;;;;5015151;28;19983;-70
2022/08/21 14:25:28;;;;;;;;;;;25.10;86.20;;;;;;5030473;28;19920;-70
2022/08/21 14:28:11;;;;;;;;;;;25.20;84.50;;;;;;5015803;28;19924;-70